Nordic Freedom — C6UL7 — position and weather

sailwx.info

Track history (hours):
 
Tides and Currents Weather Stations Pressure Air Temp Water Temp Dewpoint Dewpoint Depression Visibility Wind Speed Wind Dir Waves Ship Positions

Nordic Freedom

Last reported at 2018-May-12 17:08 UTC. Time now 2018-May-23 14:54 UTC.
Position S 05°24' E 011°52'.
Warning: this ship's position is 10 days out of date.

Length 274 m; draft 9.5 m.

Type: Ship. MMSI: 311817000.

Date/timePositionNaut miles runAvg speedWind from/ knotsBaromVisibWave heightAir tempDewpointWater temp
2018-May-12 17:08S 05°24' E 011°52'110.0
2018-May-12 17:00S 05°24' E 011°51'611.9
2018-May-12 16:30S 05°20' E 011°46'612.6
2018-May-12 16:00S 05°16' E 011°42'612.8
2018-May-12 15:30S 05°12' E 011°37'611.8
2018-May-12 15:00S 05°10' E 011°31'612.6
2018-May-12 14:30S 05°10' E 011°25'612.4
2018-May-12 13:59S 05°09' E 011°18'612.4
2018-May-12 13:30S 05°09' E 011°12'612.1
2018-May-12 12:59S 05°08' E 011°06'612.0
2018-May-12 12:31S 05°07' E 011°00'611.9
2018-May-12 12:00S 05°06' E 010°54'  
Track history (hours):
 
Tides and Currents Weather Stations Pressure Air Temp Water Temp Dewpoint Dewpoint Depression Visibility Wind Speed Wind Dir Waves Ship Positions

Nordic Freedom

Last reported at 2018-May-12 17:08 UTC. Time now 2018-May-23 14:54 UTC.
Position S 05°24' E 011°52'.
Warning: this ship's position is 10 days out of date.

Length 274 m; draft 9.5 m.

Type: Ship. MMSI: 311817000.

Date/timePositionNaut miles runAvg speedWind from/ knotsBaromVisibWave heightAir tempDewpointWater temp
2018-May-12 17:08S 05°24' E 011°52'110.0
2018-May-12 17:00S 05°24' E 011°51'611.9
2018-May-12 16:30S 05°20' E 011°46'612.6
2018-May-12 16:00S 05°16' E 011°42'612.8
2018-May-12 15:30S 05°12' E 011°37'611.8
2018-May-12 15:00S 05°10' E 011°31'612.6
2018-May-12 14:30S 05°10' E 011°25'612.4
2018-May-12 13:59S 05°09' E 011°18'612.4
2018-May-12 13:30S 05°09' E 011°12'612.1
2018-May-12 12:59S 05°08' E 011°06'612.0
2018-May-12 12:31S 05°07' E 011°00'611.9
2018-May-12 12:00S 05°06' E 010°54'  

Dump ship's entire track history